Skip Navigation LinksHome page > Weather > Current weather Skip Navigation Links

Current Weather

Nantucket Memorial, Nantucket, Mass.

For information only: do not use for flight planning or navigation.
Latest weather
Observation time Tuesday, October 19, 2021 3:53 PM EDT
Local time Tuesday, October 19, 2021 4:46 PM EDT
Flight conditions Visual Meteorological Conditions
Winds
Wind direction West (280°)
Wind speed 21 mph
Wind gusting to 32 mph
Peak wind speed 32 mph, 3:23 PM
Peak wind direction West-Northwest (290°)
Visibility 10 mi.
Sky condition
Ceiling unlimited
Sky clear
Temperature 63°F
Dewpoint 39°F
Altimeter 29.79 in.Hg
Derived measurements
Relative humidity 41%
Density altitude 578 ft.
Sea-level pressure 29.79 in.Hg
Remarks
Automated weather observing station with precipitation discriminator.
METAR KACK 191953Z 28018G28KT 10SM CLR 17/04 A2979 RMK AO2 PK WND 29028/1923 SLP089 T01720039

Settings

Location code

InnerDrive.Weather 4.0.6770.0 Release CLR 4.0.30319.42000
Copyright ©2018 Inner Drive Technology. All rights reserved. Portions Copyright ©1986-2018 David Braverman.

Find weather

Site navigation


Skip Navigation Links

Place info

Page info

PayPal - The safer, easier way to pay online!

Return home.

Copyright ©2021 Inner Drive Technology. Purveyors of fine, hand-crafted computer software. Page printed 2021-10-19T20:46:20 UTC.